Time;durP1;ratioP1;P1;durP2;ratioP2;P2;SDS_P1;SDS_P2;PMS_P1;PMS_P2;Temp;Humidity;BMP_temperature;BMP_pressure;BME280_temperature;BME280_humidity;BME280_pressure;Samples;Min_cycle;Max_cycle;Signal;HPM_P1;HPM_P2
2022/07/19 11:52:02;;;;;;;2.42;0.80;;;31.50;74.20;;;;;;6307698;22;20105;-91
2022/07/19 11:54:28;;;;;;;2.65;0.90;;;31.50;73.60;;;;;;6256276;22;20448;-95
2022/07/19 11:56:55;;;;;;;1.90;0.80;;;31.60;73.00;;;;;;6256665;22;20027;-94
2022/07/19 11:59:20;;;;;;;2.08;0.68;;;31.70;72.20;;;;;;6281779;22;20065;-94
2022/07/19 12:01:46;;;;;;;1.35;0.73;;;31.80;71.60;;;;;;6255911;22;20491;-95
2022/07/19 12:04:13;;;;;;;1.90;0.85;;;32.00;71.30;;;;;;6256192;22;20098;-94
2022/07/19 12:06:46;;;;;;;2.78;0.82;;;32.00;70.90;;;;;;6255964;22;20136;-95
2022/07/19 12:09:18;;;;;;;3.10;1.00;;;32.10;70.70;;;;;;6256136;22;20052;-92
2022/07/19 12:11:51;;;;;;;1.90;0.75;;;32.20;70.50;;;;;;6256253;22;20444;-94
2022/07/19 12:14:24;;;;;;;2.42;0.80;;;32.30;70.20;;;;;;6256424;22;20019;-94
2022/07/19 12:17:10;;;;;;;2.08;0.80;;;32.40;70.60;;;;;;6255577;22;20503;-95
2022/07/19 13:11:26;;;;;;;1.70;0.80;;;33.70;62.40;;;;;;6311030;22;20023;-96
2022/07/19 13:13:52;;;;;;;3.20;0.80;;;33.80;62.20;;;;;;6262348;22;20019;-96
2022/07/19 13:16:59;;;;;;;2.03;0.75;;;33.90;62.00;;;;;;6258544;22;20383;-96
2022/07/19 13:19:24;;;;;;;1.87;0.70;;;33.90;61.40;;;;;;6257804;22;20019;-95
2022/07/19 13:21:52;;;;;;;2.58;0.95;;;33.90;61.60;;;;;;6267772;22;20276;-96
2022/07/19 15:41:57;;;;;;;1.77;0.90;;;32.60;58.40;;;;;;6316164;22;20098;-96
2022/07/19 15:44:23;;;;;;;2.53;0.77;;;32.50;58.30;;;;;;6265298;22;20027;-96
2022/07/19 15:46:49;;;;;;;1.50;0.80;;;32.50;58.40;;;;;;6263514;22;20178;-96
2022/07/19 15:49:14;;;;;;;2.00;0.90;;;32.50;58.70;;;;;;6259981;22;20019;-96
2022/07/19 17:10:54;;;;;;;2.00;0.88;;;31.70;63.60;;;;;;6316924;22;20018;-94
2022/07/19 17:13:20;;;;;;;1.90;1.27;;;31.70;63.80;;;;;;6264243;22;20020;-93
2022/07/19 17:15:45;;;;;;;1.45;0.88;;;31.70;64.30;;;;;;6258843;22;20034;-92
2022/07/19 17:18:11;;;;;;;2.60;1.05;;;31.60;65.00;;;;;;6255540;22;20027;-92
2022/07/19 17:20:37;;;;;;;1.58;0.80;;;31.60;65.40;;;;;;6255588;22;20322;-93
2022/07/19 17:23:26;;;;;;;2.17;0.80;;;31.60;65.60;;;;;;6255563;22;20026;-94
2022/07/19 17:29:33;;;;;;;1.20;0.80;;;31.50;66.10;;;;;;6308146;22;20064;-92
2022/07/19 17:31:59;;;;;;;2.45;1.30;;;31.40;66.20;;;;;;6254941;22;20135;-91
2022/07/19 17:34:25;;;;;;;1.60;0.80;;;31.40;66.50;;;;;;6255435;22;20023;-93
2022/07/19 17:36:51;;;;;;;2.00;0.82;;;31.30;66.90;;;;;;6255364;22;20016;-92
2022/07/19 17:39:27;;;;;;;;;;;;;;;;;;;;;
2022/07/19 19:26:56;;;;;;;2.55;1.27;;;27.80;75.80;;;;;;6309236;22;20019;-95
2022/07/19 19:29:22;;;;;;;2.05;1.20;;;27.70;75.90;;;;;;6256602;22;20020;-94
2022/07/19 19:31:47;;;;;;;3.40;1.20;;;27.60;76.00;;;;;;6255472;22;20023;-95
2022/07/19 19:34:35;;;;;;;2.47;1.20;;;27.50;76.20;;;;;;6255993;22;20022;-93
2022/07/19 19:37:00;;;;;;;2.15;1.25;;;27.50;76.70;;;;;;6256723;22;20345;-93
2022/07/19 19:39:26;;;;;;;2.13;1.17;;;27.40;76.70;;;;;;6281630;22;20019;-94
2022/07/19 19:41:52;;;;;;;3.17;1.45;;;27.30;76.80;;;;;;6256938;22;20094;-94
2022/07/19 19:44:18;;;;;;;2.13;1.20;;;27.20;77.00;;;;;;6258002;22;20340;-92
2022/07/19 19:46:43;;;;;;;2.78;1.30;;;27.20;77.20;;;;;;6281676;22;20380;-95
2022/07/19 19:49:09;;;;;;;2.42;1.10;;;27.10;77.40;;;;;;6256498;22;20019;-94
2022/07/19 19:51:35;;;;;;;2.47;1.40;;;27.00;77.60;;;;;;6257221;22;20349;-93
2022/07/19 19:54:04;;;;;;;3.20;1.45;;;27.00;77.80;;;;;;6257846;22;20045;-94
2022/07/19 19:56:30;;;;;;;2.70;1.48;;;26.90;78.00;;;;;;6258275;22;20019;-93
2022/07/19 19:58:56;;;;;;;2.40;1.27;;;26.80;78.00;;;;;;6259004;22;20026;-93
2022/07/19 20:01:21;;;;;;;2.75;1.30;;;26.80;78.30;;;;;;6258688;22;20019;-94
2022/07/19 20:03:47;;;;;;;2.92;1.20;;;26.70;78.30;;;;;;6258614;22;20016;-95
2022/07/19 23:09:03;;;;;;;2.67;1.42;;;23.30;82.20;;;;;;6309262;22;20023;-94
2022/07/19 23:11:28;;;;;;;;;;;23.20;82.30;;;;;;6258472;22;20098;-95
2022/07/19 23:13:54;;;;;;;2.53;1.40;;;23.20;82.60;;;;;;6257226;22;19957;-90
2022/07/19 23:16:20;;;;;;;3.97;1.60;;;23.20;82.40;;;;;;6258447;22;20011;-94
2022/07/19 23:18:45;;;;;;;3.55;1.73;;;23.20;82.30;;;;;;6256822;22;20100;-96
